createdAt,value
2022-09-04T00:02:31.126Z,19.06
2022-09-04T00:05:25.810Z,19.05
2022-09-04T00:07:58.432Z,19.04
2022-09-04T00:10:48.219Z,19.04
2022-09-04T00:13:27.844Z,19.04
2022-09-04T00:16:22.573Z,19.03
2022-09-04T00:19:51.318Z,19.03
2022-09-04T00:22:29.644Z,19.02
2022-09-04T00:25:26.529Z,19.02
2022-09-04T00:28:05.204Z,19.01
2022-09-04T00:30:35.496Z,18.99
2022-09-04T00:33:20.992Z,19.00
2022-09-04T00:35:58.291Z,18.99
2022-09-04T00:38:48.105Z,19.00
2022-09-04T00:41:43.551Z,19.00
2022-09-04T00:44:16.236Z,18.98
2022-09-04T00:47:20.881Z,18.98
2022-09-04T00:50:07.411Z,18.96
2022-09-04T00:52:59.595Z,18.96
2022-09-04T00:56:16.204Z,18.95
2022-09-04T00:59:12.617Z,18.95
2022-09-04T01:01:40.426Z,18.94
2022-09-04T01:04:53.438Z,18.94
2022-09-04T01:07:49.909Z,18.94
2022-09-04T01:10:27.642Z,18.94
2022-09-04T01:13:07.199Z,18.94
2022-09-04T01:15:46.414Z,18.92
2022-09-04T01:18:22.505Z,18.93
2022-09-04T01:21:14.696Z,18.92
2022-09-04T01:24:00.959Z,18.90
2022-09-04T01:27:06.743Z,18.92
2022-09-04T01:30:00.448Z,18.94
2022-09-04T01:33:06.610Z,18.94
2022-09-04T01:35:53.378Z,18.92
2022-09-04T01:38:45.196Z,18.91
2022-09-04T01:41:49.585Z,18.91
2022-09-04T01:44:16.675Z,18.91
2022-09-04T01:46:43.476Z,18.89
2022-09-04T01:49:10.325Z,18.90
2022-09-04T01:51:49.236Z,18.91
2022-09-04T01:54:42.052Z,18.92
2022-09-04T01:57:18.854Z,18.92
2022-09-04T01:59:52.992Z,18.92
2022-09-04T02:02:25.907Z,18.91
2022-09-04T02:05:27.042Z,18.93
2022-09-04T02:08:11.736Z,18.92
2022-09-04T02:10:59.597Z,18.92
2022-09-04T02:14:09.041Z,18.92
2022-09-04T02:17:04.355Z,18.93
2022-09-04T02:19:46.933Z,18.92
2022-09-04T02:22:24.375Z,18.92
2022-09-04T02:24:58.747Z,18.92
2022-09-04T02:27:56.964Z,18.91
2022-09-04T02:30:24.330Z,18.91
2022-09-04T02:32:54.153Z,18.90
2022-09-04T02:35:21.012Z,18.90
2022-09-04T02:38:24.515Z,18.91
2022-09-04T02:41:40.507Z,18.91
2022-09-04T02:44:21.975Z,18.90
2022-09-04T02:47:12.572Z,18.91
2022-09-04T02:49:52.172Z,18.89
2022-09-04T02:52:33.806Z,18.91
2022-09-04T02:55:12.639Z,18.91
2022-09-04T02:57:48.562Z,18.90
2022-09-04T03:00:39.023Z,18.89
2022-09-04T03:03:15.176Z,18.90
2022-09-04T03:05:51.470Z,18.89
2022-09-04T03:08:34.434Z,18.90
2022-09-04T03:11:23.018Z,18.89
2022-09-04T03:14:12.620Z,18.90
2022-09-04T03:16:57.582Z,18.91
2022-09-04T03:19:28.273Z,18.92
2022-09-04T03:22:18.571Z,18.89
2022-09-04T03:25:23.605Z,18.90
2022-09-04T03:27:50.430Z,18.90
2022-09-04T03:30:18.024Z,18.91
2022-09-04T03:33:04.022Z,18.91
2022-09-04T03:35:49.639Z,18.90
2022-09-04T03:38:24.308Z,18.89
2022-09-04T03:41:09.587Z,18.90
2022-09-04T03:43:52.448Z,18.90
2022-09-04T03:46:25.111Z,18.91
2022-09-04T03:49:19.972Z,18.92
2022-09-04T03:52:02.952Z,18.92
2022-09-04T03:54:42.653Z,18.92
2022-09-04T03:57:28.349Z,18.91
2022-09-04T03:59:58.271Z,18.90
2022-09-04T04:03:00.194Z,18.89
2022-09-04T04:05:50.573Z,18.89
2022-09-04T04:08:20.441Z,18.88
2022-09-04T04:10:53.055Z,18.89
2022-09-04T04:13:34.867Z,18.88
2022-09-04T04:16:40.881Z,18.87
2022-09-04T04:19:34.055Z,18.87
2022-09-04T04:22:11.916Z,18.87
2022-09-04T04:25:20.179Z,18.87
2022-09-04T04:27:58.280Z,18.88
2022-09-04T04:30:25.325Z,18.86
2022-09-04T04:33:20.233Z,18.86
2022-09-04T04:36:17.861Z,18.85
2022-09-04T04:39:10.370Z,18.86
2022-09-04T04:42:05.490Z,18.85
2022-09-04T04:45:15.924Z,18.85
2022-09-04T04:47:59.083Z,18.86
2022-09-04T04:50:53.777Z,18.85
2022-09-04T04:53:36.337Z,18.85
2022-09-04T04:56:06.991Z,18.85
2022-09-04T04:58:44.140Z,18.83
2022-09-04T05:01:34.582Z,18.83
2022-09-04T05:04:46.608Z,18.82
2022-09-04T05:07:21.615Z,18.83
2022-09-04T05:10:10.880Z,18.82
2022-09-04T05:13:20.279Z,18.81
2022-09-04T05:16:27.221Z,18.82
2022-09-04T05:19:12.850Z,18.82
2022-09-04T05:21:43.764Z,18.81
2022-09-04T05:24:32.247Z,18.81
2022-09-04T05:27:34.226Z,18.81
2022-09-04T05:31:02.712Z,18.80
2022-09-04T05:33:57.502Z,18.79
2022-09-04T05:36:50.530Z,18.79
2022-09-04T05:39:31.419Z,18.76
2022-09-04T05:42:06.543Z,18.76
2022-09-04T05:44:58.706Z,18.76
2022-09-04T05:47:31.924Z,18.77
2022-09-04T05:50:10.751Z,18.77
2022-09-04T05:52:37.550Z,18.75
2022-09-04T05:55:32.270Z,18.75
2022-09-04T05:58:06.987Z,18.76
2022-09-04T06:01:06.333Z,18.75
2022-09-04T06:03:48.241Z,18.75
2022-09-04T06:06:22.828Z,18.75
2022-09-04T06:09:04.702Z,18.76
2022-09-04T06:11:40.051Z,18.75
2022-09-04T06:14:09.675Z,18.74
2022-09-04T06:17:00.804Z,18.75
2022-09-04T06:19:49.032Z,18.75
2022-09-04T06:22:24.702Z,18.75
2022-09-04T06:25:14.044Z,18.74
2022-09-04T06:27:56.301Z,18.74
2022-09-04T06:30:30.940Z,18.73
2022-09-04T06:33:22.761Z,18.74
2022-09-04T06:36:04.928Z,18.74
2022-09-04T06:39:13.138Z,18.73
2022-09-04T06:41:54.895Z,18.74
2022-09-04T06:44:56.732Z,18.73
2022-09-04T06:47:33.659Z,18.73
2022-09-04T06:50:06.593Z,18.72
2022-09-04T06:52:46.370Z,18.72
2022-09-04T06:55:25.373Z,18.71
2022-09-04T06:58:07.414Z,18.72
2022-09-04T07:00:44.555Z,18.71
2022-09-04T07:03:30.996Z,18.71
2022-09-04T07:06:30.336Z,18.71
2022-09-04T07:09:20.566Z,18.70
2022-09-04T07:12:02.962Z,18.71
2022-09-04T07:14:54.821Z,18.71
2022-09-04T07:17:57.344Z,18.69
2022-09-04T07:20:34.922Z,18.72
2022-09-04T07:23:14.050Z,18.71
2022-09-04T07:25:57.025Z,18.73
2022-09-04T07:28:53.415Z,18.74
2022-09-04T07:31:24.808Z,18.73
2022-09-04T07:34:06.122Z,18.74
2022-09-04T07:36:48.858Z,18.73
2022-09-04T07:39:38.262Z,18.75
2022-09-04T07:42:38.934Z,18.75
2022-09-04T07:45:22.690Z,18.76
2022-09-04T07:48:30.867Z,18.75
2022-09-04T07:51:57.424Z,18.77
2022-09-04T07:55:01.238Z,18.78
2022-09-04T07:57:34.150Z,18.81
2022-09-04T08:00:02.655Z,18.81
2022-09-04T08:02:50.682Z,18.83
2022-09-04T08:05:25.723Z,18.83
2022-09-04T08:08:24.642Z,18.83
2022-09-04T08:11:03.535Z,18.85
2022-09-04T08:13:51.435Z,18.86
2022-09-04T08:16:30.423Z,18.87
2022-09-04T08:19:09.559Z,18.86
2022-09-04T08:21:49.217Z,18.88
2022-09-04T08:24:34.936Z,18.90
2022-09-04T08:27:32.450Z,18.90
2022-09-04T08:30:09.860Z,18.90
2022-09-04T08:33:02.389Z,18.92
2022-09-04T08:36:02.013Z,18.93
2022-09-04T08:38:50.638Z,18.93
2022-09-04T08:41:53.363Z,18.94
2022-09-04T08:44:51.005Z,18.93
2022-09-04T08:47:28.371Z,18.94
2022-09-04T08:50:10.572Z,18.94
2022-09-04T08:53:19.154Z,18.97
2022-09-04T08:56:06.651Z,18.97
2022-09-04T08:58:55.141Z,19.00
2022-09-04T09:01:47.205Z,18.99
2022-09-04T09:04:32.360Z,19.00
2022-09-04T09:07:14.503Z,19.02
2022-09-04T09:10:13.264Z,19.04
2022-09-04T09:13:07.411Z,19.07
2022-09-04T09:15:40.561Z,19.07
2022-09-04T09:19:02.189Z,19.08
2022-09-04T09:21:54.539Z,19.10
2022-09-04T09:24:46.710Z,19.13
2022-09-04T09:27:19.710Z,19.15
2022-09-04T09:30:04.852Z,19.14
2022-09-04T09:33:00.807Z,19.14
2022-09-04T09:35:56.461Z,19.17
2022-09-04T09:38:54.830Z,19.19
2022-09-04T09:41:46.931Z,19.19
2022-09-04T09:44:32.756Z,19.20
2022-09-04T09:47:12.198Z,19.19
2022-09-04T09:50:24.266Z,19.22
2022-09-04T09:53:34.426Z,19.25
2022-09-04T09:56:35.542Z,19.27
2022-09-04T09:59:41.351Z,19.30
2022-09-04T10:02:21.632Z,19.33
2022-09-04T10:05:00.763Z,19.31
2022-09-04T10:07:58.475Z,19.34
2022-09-04T10:10:56.734Z,19.33
2022-09-04T10:13:51.262Z,19.33
2022-09-04T10:16:35.948Z,19.34
2022-09-04T10:19:12.016Z,19.35
2022-09-04T10:22:16.770Z,19.38
2022-09-04T10:25:21.342Z,19.38
2022-09-04T10:28:06.746Z,19.38
2022-09-04T10:30:58.202Z,19.39
2022-09-04T10:33:43.993Z,19.41
2022-09-04T10:36:31.438Z,19.42
2022-09-04T10:39:36.281Z,19.46
2022-09-04T10:42:15.613Z,19.49
2022-09-04T10:45:03.544Z,19.49
2022-09-04T10:47:30.488Z,19.49
2022-09-04T10:50:18.460Z,19.50
2022-09-04T10:53:15.527Z,19.51
2022-09-04T10:56:06.443Z,19.53
2022-09-04T10:59:11.261Z,19.53
2022-09-04T11:01:55.291Z,19.55
2022-09-04T11:04:46.028Z,19.54
2022-09-04T11:07:34.880Z,19.59
2022-09-04T11:10:32.212Z,19.63
2022-09-04T11:13:11.998Z,19.61
2022-09-04T11:15:48.818Z,19.61
2022-09-04T11:18:45.846Z,19.61
2022-09-04T11:21:38.424Z,19.59
2022-09-04T11:24:24.112Z,19.58
2022-09-04T11:27:49.575Z,19.59
2022-09-04T11:30:18.146Z,19.59
2022-09-04T11:33:03.366Z,19.58
2022-09-04T11:36:12.328Z,19.55
2022-09-04T11:38:53.325Z,19.55
2022-09-04T11:41:32.516Z,19.55
2022-09-04T11:44:02.806Z,19.55
2022-09-04T11:46:48.149Z,19.56
2022-09-04T11:49:34.852Z,19.56
2022-09-04T11:52:15.232Z,19.55
2022-09-04T11:55:19.473Z,19.56
2022-09-04T11:58:25.309Z,19.55
2022-09-04T12:01:19.844Z,19.56
2022-09-04T12:03:46.851Z,19.56
2022-09-04T12:06:22.740Z,19.56
2022-09-04T12:09:12.116Z,19.56
2022-09-04T12:12:04.058Z,19.56
2022-09-04T12:14:52.517Z,19.55
2022-09-04T12:17:55.789Z,19.56
2022-09-04T12:20:42.985Z,19.56
2022-09-04T12:23:12.669Z,19.59
2022-09-04T12:25:51.612Z,19.60
2022-09-04T12:28:40.313Z,19.61
2022-09-04T12:31:25.324Z,19.63
2022-09-04T12:34:02.029Z,19.64
2022-09-04T12:36:41.529Z,19.65
2022-09-04T12:39:19.734Z,19.67
2022-09-04T12:42:01.029Z,19.68
2022-09-04T12:44:44.524Z,19.67
2022-09-04T12:47:16.910Z,19.66
2022-09-04T12:50:10.426Z,19.66
2022-09-04T12:53:05.413Z,19.69
2022-09-04T12:55:46.091Z,19.70
2022-09-04T12:58:52.662Z,19.70
2022-09-04T13:01:38.402Z,19.71
2022-09-04T13:04:33.526Z,19.71
2022-09-04T13:07:15.867Z,19.70
2022-09-04T13:10:07.621Z,19.69
2022-09-04T13:12:34.453Z,19.68
2022-09-04T13:15:14.412Z,19.67
2022-09-04T13:18:12.811Z,19.61
2022-09-04T13:21:02.130Z,19.62
2022-09-04T13:23:42.765Z,19.61
2022-09-04T13:26:30.131Z,19.61
2022-09-04T13:29:21.762Z,19.57
2022-09-04T13:32:07.413Z,19.55
2022-09-04T13:35:08.740Z,19.56
2022-09-04T13:37:52.356Z,19.59
2022-09-04T13:40:28.476Z,19.63
2022-09-04T13:43:41.487Z,19.67
2022-09-04T13:46:15.179Z,19.69
2022-09-04T13:48:52.464Z,19.73
2022-09-04T13:51:30.234Z,19.75
2022-09-04T13:54:21.989Z,19.78
2022-09-04T13:57:01.037Z,19.79
2022-09-04T13:59:29.049Z,19.81
2022-09-04T14:02:05.148Z,19.83
2022-09-04T14:04:44.317Z,19.86
2022-09-04T14:07:23.222Z,19.86
2022-09-04T14:09:53.559Z,19.85
2022-09-04T14:12:40.224Z,19.84
2022-09-04T14:15:19.941Z,19.86
2022-09-04T14:17:47.031Z,19.87
2022-09-04T14:20:24.952Z,19.87
2022-09-04T14:23:26.137Z,19.87
2022-09-04T14:25:58.923Z,19.87
2022-09-04T14:28:42.653Z,19.89
2022-09-04T14:31:49.126Z,19.92
2022-09-04T14:35:03.696Z,19.95
2022-09-04T14:37:45.719Z,19.96
2022-09-04T14:40:20.058Z,19.97
2022-09-04T14:43:17.496Z,20.01
2022-09-04T14:46:05.083Z,20.00
2022-09-04T14:48:41.147Z,20.01
2022-09-04T14:51:16.359Z,20.03
2022-09-04T14:53:50.282Z,20.04
2022-09-04T14:56:31.674Z,20.04
2022-09-04T14:59:09.477Z,20.03
2022-09-04T15:01:55.474Z,20.02
2022-09-04T15:04:34.050Z,20.03
2022-09-04T15:07:19.727Z,20.03
2022-09-04T15:09:50.593Z,20.02
2022-09-04T15:12:29.159Z,20.02
2022-09-04T15:15:31.972Z,20.03
2022-09-04T15:18:10.923Z,20.04
2022-09-04T15:20:45.563Z,20.04
2022-09-04T15:23:20.317Z,20.04
2022-09-04T15:26:18.825Z,20.04
2022-09-04T15:28:50.637Z,20.04
2022-09-04T15:31:30.190Z,20.06
2022-09-04T15:34:07.114Z,20.05
2022-09-04T15:36:36.546Z,20.06
2022-09-04T15:39:10.577Z,20.07
2022-09-04T15:41:50.254Z,20.07
2022-09-04T15:44:20.800Z,20.07
2022-09-04T15:46:57.235Z,20.07
2022-09-04T15:49:49.262Z,20.07
2022-09-04T15:52:44.114Z,20.09
2022-09-04T15:55:27.093Z,20.07
2022-09-04T15:58:20.317Z,20.07
2022-09-04T16:01:06.596Z,20.07
2022-09-04T16:04:12.934Z,20.08
2022-09-04T16:06:42.594Z,20.08
2022-09-04T16:09:19.687Z,20.07
2022-09-04T16:12:00.093Z,20.07
2022-09-04T16:14:35.922Z,20.08
2022-09-04T16:17:31.873Z,20.06
2022-09-04T16:20:23.188Z,20.06
2022-09-04T16:23:05.017Z,20.07
2022-09-04T16:25:57.134Z,20.06
2022-09-04T16:28:35.590Z,20.06
2022-09-04T16:31:06.759Z,20.06
2022-09-04T16:33:38.327Z,20.07
2022-09-04T16:36:46.474Z,20.07
2022-09-04T16:39:43.752Z,20.07
2022-09-04T16:42:31.723Z,20.07
2022-09-04T16:45:27.972Z,20.06
2022-09-04T16:47:55.053Z,20.07
2022-09-04T16:50:53.440Z,20.05
2022-09-04T16:53:20.691Z,20.03
2022-09-04T16:56:13.267Z,20.04
2022-09-04T16:58:54.993Z,20.04
2022-09-04T17:01:32.817Z,20.06
2022-09-04T17:04:17.928Z,20.05
2022-09-04T17:07:03.143Z,20.06
2022-09-04T17:10:04.380Z,20.05
2022-09-04T17:12:40.438Z,20.06
2022-09-04T17:15:28.715Z,20.05
2022-09-04T17:17:57.545Z,20.05
2022-09-04T17:24:56.338Z,20.03
2022-09-04T17:28:59.852Z,20.04
2022-09-04T17:29:11.931Z,20.03
2022-09-04T17:29:43.097Z,20.02
2022-09-04T17:34:51.813Z,20.00
2022-09-04T17:40:38.226Z,19.99
2022-09-04T17:40:48.032Z,19.99
2022-09-04T17:42:09.292Z,19.96
2022-09-04T17:45:01.012Z,19.96
2022-09-04T17:47:43.099Z,19.94
2022-09-04T17:50:17.953Z,19.93
2022-09-04T17:53:01.138Z,19.93
2022-09-04T17:55:31.779Z,19.95
2022-09-04T17:58:33.305Z,19.96
2022-09-04T18:01:14.090Z,19.94
2022-09-04T18:04:20.620Z,19.95
2022-09-04T18:06:56.723Z,19.96
2022-09-04T18:09:33.502Z,19.98
2022-09-04T18:12:20.823Z,19.98
2022-09-04T18:15:34.234Z,19.99
2022-09-04T18:18:29.493Z,19.99
2022-09-04T18:21:27.778Z,20.00
2022-09-04T18:24:07.567Z,20.02
2022-09-04T18:26:41.611Z,20.00
2022-09-04T18:32:44.494Z,19.99
2022-09-04T18:37:10.819Z,19.99
2022-09-04T18:37:22.644Z,20.01
2022-09-04T18:39:09.290Z,20.01
2022-09-04T18:50:20.356Z,20.02
2022-09-04T18:50:42.920Z,20.03
2022-09-04T18:50:46.763Z,20.04
2022-09-04T18:53:45.103Z,20.07
2022-09-04T18:56:28.116Z,20.04
2022-09-04T18:59:08.031Z,20.06
2022-09-04T19:01:58.686Z,20.06
2022-09-04T19:04:39.715Z,20.07
2022-09-04T19:07:32.893Z,20.08
2022-09-04T19:10:06.164Z,20.08
2022-09-04T19:13:09.198Z,20.09
2022-09-04T19:15:55.974Z,20.09
2022-09-04T19:18:46.436Z,20.11
2022-09-04T19:21:40.442Z,20.13
2022-09-04T19:24:17.362Z,20.14
2022-09-04T19:26:47.348Z,20.14
2022-09-04T19:29:34.838Z,20.14
2022-09-04T19:32:14.068Z,20.14
2022-09-04T19:34:57.642Z,20.13
2022-09-04T19:42:37.910Z,20.14
2022-09-04T19:46:14.823Z,20.14
2022-09-04T19:46:19.137Z,20.13
2022-09-04T19:46:59.991Z,20.15
2022-09-04T19:53:17.539Z,20.16
2022-09-04T19:53:29.901Z,20.15
2022-09-04T19:55:46.532Z,20.16
2022-09-04T19:58:44.059Z,20.16
2022-09-04T20:01:36.562Z,20.18
2022-09-04T20:04:20.889Z,20.17
2022-09-04T20:06:55.972Z,20.18
2022-09-04T20:09:49.329Z,20.17
2022-09-04T20:12:37.795Z,20.18
2022-09-04T20:15:13.468Z,20.21
2022-09-04T20:17:43.783Z,20.19
2022-09-04T20:20:25.513Z,20.17
2022-09-04T20:23:34.318Z,20.17
2022-09-04T20:26:11.175Z,20.16
2022-09-04T20:28:56.376Z,20.15
2022-09-04T20:32:13.058Z,20.14
2022-09-04T20:34:46.545Z,20.14
2022-09-04T20:37:35.530Z,20.15
2022-09-04T20:40:09.234Z,20.15
2022-09-04T20:42:47.705Z,20.14
2022-09-04T20:50:12.408Z,20.14
2022-09-04T20:52:53.164Z,20.15
2022-09-04T20:52:53.682Z,20.13
2022-09-04T20:55:25.442Z,20.12
2022-09-04T21:03:09.940Z,20.10
2022-09-04T21:03:19.032Z,20.06
2022-09-04T21:04:26.776Z,20.04
2022-09-04T21:07:41.653Z,20.03
2022-09-04T21:10:34.126Z,20.01
2022-09-04T21:13:33.064Z,19.98
2022-09-04T21:16:36.075Z,19.95
2022-09-04T21:19:29.109Z,19.93
2022-09-04T21:22:33.402Z,19.90
2022-09-04T21:25:20.075Z,19.89
2022-09-04T21:28:05.762Z,19.86
2022-09-04T21:30:36.426Z,19.85
2022-09-04T21:33:27.651Z,19.85
2022-09-04T21:36:25.457Z,19.84
2022-09-04T21:39:40.190Z,19.84
2022-09-04T21:42:37.224Z,19.82
2022-09-04T21:45:04.512Z,19.80
2022-09-04T21:48:14.615Z,19.79
2022-09-04T21:51:08.344Z,19.79
2022-09-04T21:53:45.823Z,19.77
2022-09-04T22:02:11.079Z,19.76
2022-09-04T22:02:38.280Z,19.72
2022-09-04T22:02:55.762Z,19.72
2022-09-04T22:05:51.917Z,19.71
2022-09-04T22:13:26.151Z,19.70
2022-09-04T22:13:38.857Z,19.69
2022-09-04T22:14:50.963Z,19.68
2022-09-04T22:17:40.178Z,19.67
2022-09-04T22:20:28.031Z,19.67
2022-09-04T22:23:41.276Z,19.66
2022-09-04T22:26:38.918Z,19.66
2022-09-04T22:29:05.821Z,19.64
2022-09-04T22:32:10.452Z,19.62
2022-09-04T22:35:06.753Z,19.62
2022-09-04T22:37:58.394Z,19.61
2022-09-04T22:40:58.988Z,19.58
2022-09-04T22:43:27.468Z,19.57
2022-09-04T22:46:17.754Z,19.56
2022-09-04T22:49:18.345Z,19.55
2022-09-04T22:52:10.325Z,19.54
2022-09-04T22:55:09.087Z,19.54
2022-09-04T22:57:57.071Z,19.52
2022-09-04T23:00:24.273Z,19.52
2022-09-04T23:03:19.022Z,19.50
2022-09-04T23:06:08.816Z,19.50
2022-09-04T23:13:50.524Z,19.48
2022-09-04T23:13:54.249Z,19.50
2022-09-04T23:15:29.000Z,19.46
2022-09-04T23:21:17.967Z,19.45
2022-09-04T23:26:43.384Z,19.43
2022-09-04T23:26:44.145Z,19.45
2022-09-04T23:27:29.421Z,19.42
2022-09-04T23:30:23.112Z,19.42
2022-09-04T23:32:56.550Z,19.41
2022-09-04T23:36:01.559Z,19.40
2022-09-04T23:38:59.153Z,19.42
2022-09-04T23:41:36.417Z,19.41
2022-09-04T23:44:37.525Z,19.39
2022-09-04T23:47:48.002Z,19.37
2022-09-04T23:50:41.618Z,19.35
2022-09-04T23:53:14.855Z,19.36
2022-09-04T23:56:08.398Z,19.35
2022-09-04T23:59:08.229Z,19.35
